Time;durP1;ratioP1;P1;durP2;ratioP2;P2;SDS_P1;SDS_P2;PMS_P1;PMS_P2;Temp;Humidity;BMP_temperature;BMP_pressure;BME280_temperature;BME280_humidity;BME280_pressure;Samples;Min_cycle;Max_cycle;Signal;HPM_P1;HPM_P2
2023/02/10 00:01:26;;;;;;;31.58;21.50;;;;;;;3.78;100.00;103434.25;5097915;28;20078;-65
2023/02/10 00:03:54;;;;;;;33.40;21.10;;;;;;;3.78;100.00;103433.41;5096177;28;20048;-64
2023/02/10 00:06:23;;;;;;;29.35;20.73;;;;;;;3.76;100.00;103438.97;5096715;28;20048;-64
2023/02/10 00:08:53;;;;;;;29.85;19.33;;;;;;;3.75;100.00;103448.06;5096813;28;20046;-64
2023/02/10 00:11:56;;;;;;;32.25;20.05;;;;;;;3.75;100.00;103453.47;5108597;27;20411;-64
2023/02/10 00:14:09;;;;;;;29.67;21.33;;;;;;;3.74;100.00;103453.59;5116649;28;20071;-65
2023/02/10 00:16:37;;;;;;;32.00;21.45;;;;;;;3.74;100.00;103453.59;5116574;28;20044;-63
2023/02/10 00:19:04;;;;;;;35.03;22.30;;;;;;;3.72;100.00;103456.44;5114653;27;20049;-64
2023/02/10 00:21:32;;;;;;;31.42;22.20;;;;;;;3.72;100.00;103463.69;5116597;28;20485;-64
2023/02/10 00:24:00;;;;;;;28.02;19.88;;;;;;;3.71;100.00;103464.72;5116234;27;20402;-64
2023/02/10 00:26:28;;;;;;;28.90;19.42;;;;;;;3.69;100.00;103467.56;5116762;28;20052;-64
2023/02/10 00:28:56;;;;;;;27.83;19.92;;;;;;;3.70;100.00;103452.22;5114857;28;20143;-64
2023/02/10 00:31:24;;;;;;;29.88;21.38;;;;;;;3.70;100.00;103461.16;5117007;28;20043;-64
2023/02/10 00:33:52;;;;;;;32.42;21.40;;;;;;;3.68;100.00;103463.19;5115290;28;20096;-64
2023/02/10 00:36:21;;;;;;;31.73;20.83;;;;;;;3.67;100.00;103464.16;5105370;27;20047;-64
2023/02/10 00:38:51;;;;;;;33.35;20.65;;;;;;;3.67;100.00;103466.88;5095382;28;20032;-64
2023/02/10 00:41:21;;;;;;;30.95;21.65;;;;;;;3.67;100.00;103463.31;5078331;28;20064;-64
2023/02/10 00:43:49;;;;;;;34.92;21.70;;;;;;;3.66;100.00;103467.03;5095233;28;20483;-64
2023/02/10 00:46:19;;;;;;;31.45;20.60;;;;;;;3.64;100.00;103467.19;5097478;28;20036;-64
2023/02/10 00:48:48;;;;;;;29.52;20.83;;;;;;;3.63;100.00;103468.16;5096352;27;20044;-64
2023/02/10 00:51:17;;;;;;;30.02;20.23;;;;;;;3.64;100.00;103469.88;5094353;28;20135;-64
2023/02/10 00:53:45;;;;;;;27.63;19.88;;;;;;;3.63;100.00;103462.78;5116598;28;20050;-64
2023/02/10 00:56:12;;;;;;;31.13;21.27;;;;;;;3.62;100.00;103466.50;5116532;28;20047;-65
2023/02/10 00:58:40;;;;;;;30.77;21.13;;;;;;;3.61;100.00;103465.66;5098471;28;20058;-65
2023/02/10 01:01:09;;;;;;;29.85;20.27;;;;;;;3.61;100.00;103470.19;5104829;28;20438;-64
2023/02/10 01:03:38;;;;;;;29.33;20.77;;;;;;;3.62;100.00;103477.28;5078316;28;20098;-64
2023/02/10 01:06:06;;;;;;;27.90;19.85;;;;;;;3.61;100.00;103473.75;5105141;28;20044;-64
2023/02/10 01:08:35;;;;;;;33.90;20.90;;;;;;;3.59;100.00;103473.03;5131282;28;20082;-65
2023/02/10 01:11:05;;;;;;;26.95;17.98;;;;;;;3.60;100.00;103473.88;5130669;28;20101;-64
2023/02/10 01:13:34;;;;;;;30.17;19.50;;;;;;;3.60;100.00;103476.56;5112594;28;20039;-64
2023/02/10 01:16:05;;;;;;;29.63;21.10;;;;;;;3.58;100.00;103486.66;5126708;28;20099;-64
2023/02/10 01:18:33;;;;;;;31.50;22.63;;;;;;;3.55;100.00;103487.00;5102502;28;20086;-65
2023/02/10 01:21:10;;;;;;;35.40;22.20;;;;;;;3.55;100.00;103493.22;5110819;27;20052;-64
2023/02/10 01:23:38;;;;;;;38.08;21.90;;;;;;;3.54;100.00;103485.31;5113067;28;20453;-64
2023/02/10 01:26:06;;;;;;;29.65;20.75;;;;;;;3.55;100.00;103489.69;5115704;28;20055;-63
2023/02/10 01:28:35;;;;;;;32.55;22.15;;;;;;;3.54;100.00;103494.22;5114643;28;20039;-64
2023/02/10 01:31:09;;;;;;;32.45;22.27;;;;;;;3.53;100.00;103497.06;5114532;28;20402;-64
2023/02/10 01:33:38;;;;;;;33.30;21.55;;;;;;;3.52;100.00;103503.47;5115192;27;20552;-63
2023/02/10 01:36:07;;;;;;;33.22;22.05;;;;;;;3.50;100.00;103505.47;5093881;28;20399;-64
2023/02/10 01:38:35;;;;;;;29.10;21.02;;;;;;;3.49;100.00;103501.06;5095151;28;20407;-64
2023/02/10 01:41:04;;;;;;;32.20;21.85;;;;;;;3.47;100.00;103495.84;5095138;28;20063;-63
2023/02/10 01:43:52;;;;;;;30.13;21.48;;;;;;;3.46;100.00;103493.31;5083596;28;20059;-63
2023/02/10 01:46:19;;;;;;;33.63;21.17;;;;;;;3.44;100.00;103501.56;5096627;28;20516;-65
2023/02/10 01:48:47;;;;;;;32.97;21.25;;;;;;;3.42;100.00;103493.63;5103136;28;20055;-65
2023/02/10 01:51:17;;;;;;;29.02;20.63;;;;;;;3.44;100.00;103481.81;5093919;28;20048;-63
2023/02/10 01:53:44;;;;;;;25.45;18.45;;;;;;;3.44;100.00;103489.91;5095052;28;20047;-65
2023/02/10 01:56:13;;;;;;;23.15;16.73;;;;;;;3.42;100.00;103477.44;5076980;28;20068;-64
2023/02/10 01:58:41;;;;;;;24.48;16.83;;;;;;;3.42;100.00;103479.31;5092674;28;20119;-65
2023/02/10 02:01:09;;;;;;;21.45;15.77;;;;;;;3.40;100.00;103468.66;5097131;28;20044;-64
2023/02/10 02:03:39;;;;;;;25.33;17.20;;;;;;;3.38;100.00;103470.66;5107011;28;20051;-64
2023/02/10 02:06:08;;;;;;;22.30;16.33;;;;;;;3.37;100.00;103474.38;5097676;28;20040;-63
2023/02/10 02:08:37;;;;;;;26.17;17.08;;;;;;;3.38;100.00;103472.53;5113442;28;20090;-63
2023/02/10 02:11:16;;;;;;;29.08;20.45;;;;;;;3.36;100.00;103474.50;5096295;27;20052;-63
2023/02/10 02:13:56;;;;;;;25.77;17.67;;;;;;;3.36;100.00;103482.59;5094322;28;20050;-64
2023/02/10 02:16:37;;;;;;;25.83;17.10;;;;;;;3.34;100.00;103482.78;5098816;27;20460;-64
2023/02/10 02:19:19;;;;;;;26.30;17.42;;;;;;;3.33;100.00;103483.75;5094459;28;20082;-64
2023/02/10 02:22:19;;;;;;;24.73;17.35;;;;;;;3.32;100.00;103476.69;5109243;27;20055;-65
2023/02/10 02:25:19;;;;;;;24.83;17.17;;;;;;;3.30;100.00;103478.69;5076786;28;20044;-64
2023/02/10 02:28:04;;;;;;;31.27;20.77;;;;;;;3.26;100.00;103490.75;5095995;28;20104;-62
2023/02/10 02:30:46;;;;;;;28.98;20.00;;;;;;;3.23;100.00;103493.78;5112821;28;20064;-62
2023/02/10 02:33:19;;;;;;;31.92;21.23;;;;;;;3.21;100.00;103493.06;5106568;28;20127;-63
2023/02/10 02:35:53;;;;;;;30.17;20.67;;;;;;;3.21;100.00;103501.16;5106011;28;20060;-62
2023/02/10 02:38:23;;;;;;;28.63;21.77;;;;;;;3.18;100.00;103498.78;5109692;28;20043;-63
2023/02/10 02:40:51;;;;;;;27.42;20.35;;;;;;;3.18;100.00;103493.38;5121377;28;20055;-64
2023/02/10 02:43:18;;;;;;;31.00;21.33;;;;;;;3.17;100.00;103484.44;5115516;28;20134;-65
2023/02/10 02:45:59;;;;;;;32.50;22.35;;;;;;;3.19;100.00;103489.69;5114206;28;20079;-64
2023/02/10 02:48:36;;;;;;;31.98;21.42;;;;;;;3.17;100.00;103488.97;5112864;28;20450;-63
2023/02/10 02:51:19;;;;;;;29.13;21.77;;;;;;;3.18;100.00;103477.22;5081483;28;20050;-64
2023/02/10 02:54:20;;;;;;;27.05;19.95;;;;;;;3.18;100.00;103477.22;5092742;28;20044;-64
2023/02/10 02:56:51;;;;;;;24.63;17.20;;;;;;;3.19;100.00;103481.59;5092669;28;20115;-65
2023/02/10 02:59:30;;;;;;;28.83;20.58;;;;;;;3.18;100.00;103482.63;5091987;28;20369;-65
2023/02/10 03:02:01;;;;;;;34.42;22.67;;;;;;;3.16;100.00;103481.91;5075687;28;20075;-64
2023/02/10 03:04:31;;;;;;;27.80;21.25;;;;;;;3.12;100.00;103488.59;5092809;28;20066;-64
2023/02/10 03:07:01;;;;;;;32.97;21.85;;;;;;;3.09;100.00;103486.22;5059360;28;20093;-63
2023/02/10 03:09:28;;;;;;;33.15;22.20;;;;;;;3.06;100.00;103492.75;5078509;28;20041;-64
2023/02/10 03:11:56;;;;;;;31.15;21.10;;;;;;;3.06;100.00;103497.31;5093486;28;20146;-63
2023/02/10 03:14:24;;;;;;;30.58;22.33;;;;;;;3.06;100.00;103505.38;5093908;28;20598;-64
2023/02/10 03:16:52;;;;;;;32.40;21.65;;;;;;;3.05;100.00;103506.38;5093324;28;20412;-64
2023/02/10 03:19:19;;;;;;;34.83;22.67;;;;;;;3.02;100.00;103503.97;5093608;28;20104;-65
2023/02/10 03:21:47;;;;;;;32.00;21.92;;;;;;;3.02;100.00;103514.75;5113472;28;20141;-65
2023/02/10 03:24:16;;;;;;;31.60;22.02;;;;;;;3.02;100.00;103509.38;5113570;28;20043;-64
2023/02/10 03:26:44;;;;;;;30.05;20.63;;;;;;;3.02;100.00;103517.44;5114240;28;20061;-65
2023/02/10 03:29:13;;;;;;;31.40;21.40;;;;;;;3.01;100.00;103526.50;5113623;28;20047;-65
2023/02/10 03:31:41;;;;;;;30.17;20.73;;;;;;;3.01;100.00;103521.13;5111128;28;20043;-65
2023/02/10 03:34:09;;;;;;;30.00;20.27;;;;;;;3.00;100.00;103522.97;5117407;27;20047;-65
2023/02/10 03:36:36;;;;;;;30.88;20.98;;;;;;;3.02;100.00;103515.59;5118253;28;20048;-64
2023/02/10 03:39:04;;;;;;;28.77;20.50;;;;;;;3.03;100.00;103520.00;5120030;28;20044;-65
2023/02/10 03:41:32;;;;;;;25.35;18.38;;;;;;;3.02;100.00;103509.38;5097872;28;20064;-64
2023/02/10 03:44:00;;;;;;;29.85;19.17;;;;;;;3.04;100.00;103520.84;5079750;28;20531;-63
2023/02/10 03:46:27;;;;;;;27.20;20.15;;;;;;;3.03;100.00;103519.13;5099364;27;20047;-65
2023/02/10 03:48:56;;;;;;;31.45;21.20;;;;;;;3.02;100.00;103523.69;5111686;27;20083;-65
2023/02/10 03:51:23;;;;;;;26.42;19.75;;;;;;;3.01;100.00;103527.38;5091450;28;20059;-64
2023/02/10 03:53:51;;;;;;;28.65;18.13;;;;;;;2.99;100.00;103522.13;5097229;28;20048;-65
2023/02/10 03:56:19;;;;;;;26.42;18.83;;;;;;;2.98;100.00;103525.84;5112774;28;20048;-65
2023/02/10 03:58:46;;;;;;;22.90;17.25;;;;;;;2.97;100.00;103521.44;5097534;28;20040;-65
2023/02/10 04:01:16;;;;;;;26.30;18.70;;;;;;;2.95;100.00;103522.59;5115586;28;20510;-64
2023/02/10 04:03:44;;;;;;;28.67;20.02;;;;;;;2.95;100.00;103523.44;5115951;28;20051;-63
2023/02/10 04:06:12;;;;;;;25.63;17.05;;;;;;;2.94;100.00;103521.75;5115698;28;20403;-64
2023/02/10 04:08:40;;;;;;;25.42;18.40;;;;;;;2.92;100.00;103512.97;5116149;28;20607;-64
2023/02/10 04:11:09;;;;;;;26.75;17.73;;;;;;;2.94;100.00;103526.28;5099795;28;20047;-63
2023/02/10 04:13:37;;;;;;;28.10;19.25;;;;;;;2.95;100.00;103528.81;5097643;28;20385;-63
2023/02/10 04:16:09;;;;;;;25.45;18.10;;;;;;;2.94;100.00;103520.91;5095538;28;20044;-65
2023/02/10 04:18:38;;;;;;;33.63;20.88;;;;;;;2.91;100.00;103522.06;5079374;28;20048;-64
2023/02/10 04:21:11;;;;;;;29.80;19.50;;;;;;;2.90;100.00;103514.13;5115478;28;20040;-63
2023/02/10 04:23:38;;;;;;;31.50;21.05;;;;;;;2.87;100.00;103517.13;5117381;28;20043;-65
2023/02/10 04:26:06;;;;;;;32.53;23.13;;;;;;;2.79;100.00;103525.94;5115350;27;20514;-64
2023/02/10 04:28:34;;;;;;;32.33;24.00;;;;;;;2.70;100.00;103522.28;5116353;28;20506;-63
2023/02/10 04:31:02;;;;;;;31.95;23.80;;;;;;;2.65;100.00;103513.81;5113841;28;20487;-65
2023/02/10 04:33:29;;;;;;;37.80;25.25;;;;;;;2.60;100.00;103520.63;5115648;28;20046;-64
2023/02/10 04:35:57;;;;;;;33.17;22.13;;;;;;;2.62;100.00;103513.25;5078689;28;20143;-65
2023/02/10 04:38:25;;;;;;;30.98;22.23;;;;;;;2.65;100.00;103516.50;5110417;27;20059;-64
2023/02/10 04:40:53;;;;;;;30.17;21.40;;;;;;;2.68;100.00;103515.38;5096347;28;20542;-64
2023/02/10 04:43:21;;;;;;;27.15;21.00;;;;;;;2.69;100.00;103511.66;5103385;28;20047;-64
2023/02/10 04:45:51;;;;;;;27.50;18.15;;;;;;;2.71;100.00;103517.75;5115644;28;20085;-65
2023/02/10 04:48:20;;;;;;;31.20;22.17;;;;;;;2.71;100.00;103520.44;5116911;28;20044;-64
2023/02/10 04:50:49;;;;;;;34.25;23.80;;;;;;;2.69;100.00;103525.13;5097631;28;20059;-64
2023/02/10 04:53:16;;;;;;;31.27;22.52;;;;;;;2.68;100.00;103526.13;5096183;28;20126;-64
2023/02/10 04:55:44;;;;;;;29.67;20.55;;;;;;;2.68;100.00;103526.13;5095811;28;20040;-63
2023/02/10 04:58:12;;;;;;;35.28;22.83;;;;;;;2.68;100.00;103523.44;5099417;28;20071;-63
2023/02/10 05:00:40;;;;;;;28.73;21.23;;;;;;;2.67;100.00;103524.41;5094457;28;20048;-64
2023/02/10 05:03:07;;;;;;;34.90;21.85;;;;;;;2.65;100.00;103521.91;5093867;28;20043;-64
2023/02/10 05:05:35;;;;;;;35.22;22.08;;;;;;;2.64;100.00;103535.50;5094352;28;20048;-64
2023/02/10 05:08:03;;;;;;;34.40;23.63;;;;;;;2.63;100.00;103537.34;5103711;27;20901;-63
2023/02/10 05:10:30;;;;;;;32.47;23.52;;;;;;;2.63;100.00;103539.19;5099847;27;20052;-64
2023/02/10 05:12:58;;;;;;;36.08;23.77;;;;;;;2.61;100.00;103541.19;5094094;28;20079;-65
2023/02/10 05:15:26;;;;;;;33.05;24.20;;;;;;;2.61;100.00;103544.72;5093151;28;20051;-63
2023/02/10 05:17:53;;;;;;;32.80;23.77;;;;;;;2.60;100.00;103545.72;5094277;28;20048;-65
2023/02/10 05:20:21;;;;;;;31.00;22.67;;;;;;;2.60;100.00;103545.72;5098453;27;20040;-64
2023/02/10 05:22:49;;;;;;;35.15;23.27;;;;;;;2.59;100.00;103549.41;5102503;27;20042;-64
2023/02/10 05:25:16;;;;;;;33.60;22.42;;;;;;;2.59;100.00;103537.78;5111444;27;20057;-63
2023/02/10 05:27:44;;;;;;;28.63;21.15;;;;;;;2.60;100.00;103536.78;5112229;28;20073;-64
2023/02/10 05:30:12;;;;;;;27.33;19.70;;;;;;;2.61;100.00;103533.94;5087423;28;20048;-64
2023/02/10 05:32:41;;;;;;;26.10;17.05;;;;;;;2.70;100.00;103534.91;5093649;28;20123;-63
2023/02/10 05:35:09;;;;;;;35.97;21.13;;;;;;;2.73;100.00;103545.38;5094944;28;20052;-63
2023/02/10 05:37:37;;;;;;;34.42;21.95;;;;;;;2.72;100.00;103544.53;5093572;28;20044;-64
2023/02/10 05:40:05;;;;;;;41.63;26.27;;;;;;;2.65;100.00;103543.44;5107075;27;20047;-63
2023/02/10 05:42:33;;;;;;;38.33;23.38;;;;;;;2.61;100.00;103550.09;5113195;27;20488;-63
2023/02/10 05:45:00;;;;;;;41.78;27.67;;;;;;;2.59;100.00;103556.63;5113773;28;20088;-63
2023/02/10 05:47:28;;;;;;;36.28;25.55;;;;;;;2.58;100.00;103553.09;5097113;28;20054;-64
2023/02/10 05:49:57;;;;;;;34.85;24.83;;;;;;;2.56;100.00;103545.16;5115141;28;20093;-64
2023/02/10 05:52:25;;;;;;;29.52;19.73;;;;;;;2.59;100.00;103546.69;5102622;27;20071;-64
2023/02/10 05:54:52;;;;;;;30.77;20.52;;;;;;;2.63;100.00;103545.41;5094898;28;20476;-64
2023/02/10 05:57:20;;;;;;;36.45;24.77;;;;;;;2.59;100.00;103548.56;5108922;28;20135;-63
2023/02/10 05:59:48;;;;;;;34.75;24.25;;;;;;;2.56;100.00;103555.91;5121021;28;20056;-65
2023/02/10 06:02:38;;;;;;;28.25;19.17;;;;;;;2.62;100.00;103553.63;5116505;28;20043;-63
2023/02/10 06:05:06;;;;;;;29.63;19.77;;;;;;;2.64;100.00;103551.66;4388364;28;10000789;-63
2023/02/10 06:07:34;;;;;;;34.03;23.98;;;;;;;2.59;100.00;103545.88;5092349;28;20052;-63
2023/02/10 06:10:02;;;;;;;30.13;19.77;;;;;;;2.60;100.00;103551.09;5102023;28;20059;-63
2023/02/10 06:12:29;;;;;;;34.47;24.67;;;;;;;2.61;100.00;103549.25;5094552;28;20086;-64
2023/02/10 06:14:57;;;;;;;35.95;26.10;;;;;;;2.62;100.00;103553.63;5099147;27;20060;-64
2023/02/10 06:17:26;;;;;;;32.35;23.58;;;;;;;2.63;100.00;103555.34;5112322;28;20738;-64
2023/02/10 06:19:53;;;;;;;37.70;27.33;;;;;;;2.57;100.00;103556.75;5110886;28;20144;-64
2023/02/10 06:22:21;;;;;;;29.80;20.83;;;;;;;2.62;100.00;103548.25;5096894;28;20068;-63
2023/02/10 06:24:49;;;;;;;28.23;19.98;;;;;;;2.64;100.00;103546.25;5094757;28;20483;-63
2023/02/10 06:27:17;;;;;;;29.15;19.52;;;;;;;2.65;100.00;103543.44;5105965;28;20074;-63
2023/02/10 06:29:44;;;;;;;38.75;26.75;;;;;;;2.67;100.00;103543.25;5118588;28;20048;-63
2023/02/10 06:32:12;;;;;;;31.88;21.92;;;;;;;2.71;100.00;103537.44;5107092;28;20064;-63
2023/02/10 06:34:40;;;;;;;34.58;24.70;;;;;;;2.73;100.00;103545.38;5102319;28;20044;-65
2023/02/10 06:37:10;;;;;;;32.25;23.55;;;;;;;2.70;100.00;103551.06;5098287;28;20071;-63
2023/02/10 06:39:38;;;;;;;40.75;27.95;;;;;;;2.68;100.00;103555.75;5093262;27;20052;-64
2023/02/10 06:42:06;;;;;;;34.97;24.45;;;;;;;2.68;100.00;103558.44;5091149;28;20087;-64
2023/02/10 06:44:34;;;;;;;30.17;20.17;;;;;;;2.74;100.00;103545.25;5092530;28;20048;-64
2023/02/10 06:47:01;;;;;;;30.42;21.67;;;;;;;2.77;100.00;103544.94;5090279;28;20106;-65
2023/02/10 06:49:29;;;;;;;29.42;21.17;;;;;;;2.81;100.00;103545.47;5092119;28;20054;-64
2023/02/10 06:51:56;;;;;;;31.67;21.88;;;;;;;2.85;100.00;103540.66;5097441;28;20055;-65
2023/02/10 06:54:24;;;;;;;33.75;24.48;;;;;;;2.85;100.00;103549.56;5072239;28;20111;-64
2023/02/10 06:56:52;;;;;;;45.20;30.45;;;;;;;2.78;100.00;103552.00;5089602;28;20048;-64
2023/02/10 06:59:20;;;;;;;39.47;27.40;;;;;;;2.74;100.00;103563.22;5106060;28;20046;-64
2023/02/10 07:01:48;;;;;;;37.17;26.35;;;;;;;2.75;100.00;103562.22;5110283;28;20043;-64
2023/02/10 07:04:16;;;;;;;53.30;35.95;;;;;;;2.61;100.00;103566.25;5097648;28;20055;-64
2023/02/10 07:06:43;;;;;;;51.50;35.33;;;;;;;2.52;100.00;103583.28;5089208;28;20058;-65
2023/02/10 07:09:11;;;;;;;50.88;35.90;;;;;;;2.46;100.00;103579.34;5092464;28;20131;-63
2023/02/10 07:11:39;;;;;;;54.45;36.35;;;;;;;2.45;100.00;103583.00;5088634;28;20408;-62
2023/02/10 07:14:06;;;;;;;52.97;35.97;;;;;;;2.45;100.00;103582.16;5089477;28;20400;-64
2023/02/10 07:16:34;;;;;;;56.63;36.50;;;;;;;2.40;100.00;103581.75;5087778;28;20054;-64
2023/02/10 07:19:03;;;;;;;55.47;36.03;;;;;;;2.40;100.00;103587.97;5094343;28;20075;-65
2023/02/10 07:21:30;;;;;;;55.72;37.80;;;;;;;2.42;100.00;103591.38;5107459;28;20052;-63
2023/02/10 07:24:00;;;;;;;54.10;35.75;;;;;;;2.41;100.00;103584.31;5112655;28;20143;-64
2023/02/10 07:26:28;;;;;;;55.28;36.80;;;;;;;2.44;100.00;103593.94;5113581;28;20054;-64
2023/02/10 07:28:56;;;;;;;56.78;36.47;;;;;;;2.45;100.00;103582.16;5112715;28;20058;-65
2023/02/10 07:31:23;;;;;;;47.60;32.15;;;;;;;2.49;100.00;103580.88;5112172;28;20055;-63
2023/02/10 07:33:51;;;;;;;48.13;33.10;;;;;;;2.54;100.00;103582.13;5112078;28;20169;-65
2023/02/10 07:36:20;;;;;;;60.35;29.23;;;;;;;2.66;100.00;103579.25;5112573;28;20048;-64
2023/02/10 07:38:47;;;;;;;52.92;36.60;;;;;;;2.65;100.00;103582.97;5097428;28;20052;-64
2023/02/10 07:41:15;;;;;;;58.53;36.45;;;;;;;2.61;100.00;103586.94;5091711;28;20044;-65
2023/02/10 07:43:43;;;;;;;54.72;37.28;;;;;;;2.58;100.00;103580.00;5091997;28;20047;-62
2023/02/10 07:46:15;;;;;;;57.78;38.75;;;;;;;2.55;100.00;103589.22;5098789;28;20122;-65
2023/02/10 07:48:43;;;;;;;49.75;31.95;;;;;;;2.61;100.00;103589.63;5111480;28;20408;-63
2023/02/10 07:51:10;;;;;;;48.30;32.63;;;;;;;2.66;100.00;103588.19;5112192;28;20039;-63
2023/02/10 07:53:38;;;;;;;49.22;32.53;;;;;;;2.72;100.00;103587.59;5113322;28;20491;-63
2023/02/10 07:56:06;;;;;;;50.65;30.30;;;;;;;2.82;100.00;103587.56;5113471;28;20499;-63
2023/02/10 07:58:35;;;;;;;48.60;29.02;;;;;;;2.86;100.00;103591.66;5095563;28;20372;-64
2023/02/10 08:01:07;;;;;;;47.20;24.63;;;;;;;2.94;100.00;103599.84;5111534;28;20491;-63
2023/02/10 08:03:34;;;;;;;51.78;33.28;;;;;;;2.95;100.00;103600.69;5112314;28;20052;-63
2023/02/10 08:06:02;;;;;;;47.88;28.33;;;;;;;2.97;100.00;103602.22;5112180;28;20059;-62
2023/02/10 08:08:30;;;;;;;47.67;30.60;;;;;;;2.96;100.00;103611.31;5078862;28;20048;-63
2023/02/10 08:10:58;;;;;;;54.33;35.58;;;;;;;2.93;100.00;103614.28;5092018;28;20040;-63
2023/02/10 08:13:27;;;;;;;47.72;31.10;;;;;;;2.92;100.00;103620.69;5094219;28;20479;-64
2023/02/10 08:15:55;;;;;;;49.53;29.63;;;;;;;2.95;100.00;103619.53;5092733;28;20052;-63
2023/02/10 08:18:22;;;;;;;53.83;32.63;;;;;;;2.97;100.00;103615.69;5093893;28;20109;-63
2023/02/10 08:20:50;;;;;;;56.15;34.70;;;;;;;2.96;100.00;103621.25;5079005;28;20040;-63
2023/02/10 08:23:18;;;;;;;53.40;36.05;;;;;;;2.96;100.00;103627.47;5097857;28;20051;-63
2023/02/10 08:25:46;;;;;;;55.72;34.97;;;;;;;2.97;100.00;103615.69;5106602;28;20040;-63
2023/02/10 08:28:14;;;;;;;51.25;31.65;;;;;;;3.02;100.00;103620.63;5118679;28;20044;-62
2023/02/10 08:30:42;;;;;;;54.78;34.03;;;;;;;3.07;100.00;103629.13;5116586;28;20048;-64
2023/02/10 08:33:10;;;;;;;65.65;38.15;;;;;;;3.07;100.00;103628.28;5098524;28;20045;-62
2023/02/10 08:35:38;;;;;;;63.90;38.15;;;;;;;3.06;100.00;103643.59;5115405;28;20518;-63
2023/02/10 08:38:06;;;;;;;63.67;36.85;;;;;;;3.04;100.00;103645.59;5113724;28;20039;-63
2023/02/10 08:40:34;;;;;;;60.42;38.58;;;;;;;3.05;100.00;103646.44;5115039;28;20098;-64
2023/02/10 08:43:02;;;;;;;69.93;40.17;;;;;;;3.04;100.00;103642.88;5115392;28;20044;-63
2023/02/10 08:45:30;;;;;;;51.80;30.25;;;;;;;3.09;100.00;103642.44;5103240;28;20044;-64
2023/02/10 08:47:57;;;;;;;49.53;28.00;;;;;;;3.15;100.00;103622.97;5094885;28;20131;-62
2023/02/10 08:50:25;;;;;;;42.85;25.00;;;;;;;3.23;100.00;103615.00;5096959;28;20044;-63
2023/02/10 08:52:53;;;;;;;55.35;32.25;;;;;;;3.28;100.00;103626.19;5061744;28;20190;-65
2023/02/10 08:55:21;;;;;;;53.90;30.80;;;;;;;3.34;100.00;103630.13;5097319;28;20087;-64
2023/02/10 08:57:49;;;;;;;52.67;31.05;;;;;;;3.48;100.00;103617.97;5097531;28;20056;-62
2023/02/10 09:00:17;;;;;;;73.78;44.25;;;;;;;3.35;100.00;103621.88;5094781;28;20048;-64
2023/02/10 09:02:44;;;;;;;70.13;43.83;;;;;;;3.23;100.00;103623.09;5095779;28;20046;-64
2023/02/10 09:05:14;;;;;;;70.97;44.85;;;;;;;3.18;100.00;103628.09;5095731;28;20446;-63
2023/02/10 09:07:42;;;;;;;74.88;44.05;;;;;;;3.14;100.00;103616.75;5095808;28;20048;-64
2023/02/10 09:10:11;;;;;;;69.50;43.03;;;;;;;3.15;100.00;103609.50;5094943;28;20048;-64
2023/02/10 09:12:39;;;;;;;55.30;34.30;;;;;;;3.21;100.00;103619.69;5094897;28;20131;-64
2023/02/10 09:15:08;;;;;;;57.72;34.90;;;;;;;3.36;100.00;103617.34;5095355;28;20044;-64
2023/02/10 09:17:36;;;;;;;46.85;28.77;;;;;;;3.38;100.00;103629.66;5096895;28;20047;-63
2023/02/10 09:20:05;;;;;;;45.78;24.90;;;;;;;3.55;100.00;103622.59;5115224;28;20560;-63
2023/02/10 09:22:33;;;;;;;54.08;30.73;;;;;;;3.65;100.00;103619.84;5109440;28;20703;-61
2023/02/10 09:25:00;;;;;;;56.92;29.52;;;;;;;3.89;100.00;103626.50;5094321;28;20528;-66
2023/02/10 09:27:28;;;;;;;60.28;37.92;;;;;;;3.78;100.00;103633.81;5078750;28;20093;-63
2023/02/10 09:29:56;;;;;;;52.05;33.58;;;;;;;3.77;100.00;103629.41;5092873;28;20054;-63
2023/02/10 09:32:24;;;;;;;48.17;31.65;;;;;;;3.73;100.00;103630.72;5094392;28;20083;-64
2023/02/10 09:34:52;;;;;;;59.90;35.85;;;;;;;3.76;100.00;103641.22;5094388;28;20044;-63
2023/02/10 09:37:21;;;;;;;60.33;38.42;;;;;;;3.70;100.00;103644.50;5096761;28;20050;-63
2023/02/10 09:39:50;;;;;;;46.65;30.02;;;;;;;3.73;100.00;103636.13;5097996;28;20050;-64
2023/02/10 09:42:53;;;;;;;45.90;30.02;;;;;;;3.70;100.00;103644.50;5094088;28;20080;-64
2023/02/10 09:45:25;;;;;;;46.92;28.95;;;;;;;3.82;100.00;103640.59;5084849;28;20087;-64
2023/02/10 09:48:02;;;;;;;53.65;34.40;;;;;;;3.78;100.00;103631.13;5096449;28;20054;-65
2023/02/10 09:50:36;;;;;;;;;;;;;;;3.75;100.00;103628.72;5080483;28;20055;-63
2023/02/10 09:53:21;;;;;;;58.55;38.75;;;;;;;3.71;100.00;103621.94;5099591;28;19924;-64
2023/02/10 09:56:03;;;;;;;62.93;39.50;;;;;;;3.65;100.00;103629.78;5097462;28;20052;-64
2023/02/10 09:58:32;;;;;;;55.80;36.63;;;;;;;3.68;100.00;103629.47;5098093;28;20047;-63
2023/02/10 10:01:14;;;;;;;63.42;39.80;;;;;;;3.66;100.00;103626.94;5114365;28;20069;-64
2023/02/10 10:04:07;;;;;;;56.75;36.63;;;;;;;3.67;100.00;103623.25;5123695;28;20044;-64
2023/02/10 10:06:40;;;;;;;60.80;39.47;;;;;;;3.67;100.00;103630.50;5077610;28;20062;-64
2023/02/10 10:09:11;;;;;;;49.75;31.52;;;;;;;3.70;100.00;103635.56;5103444;28;20376;-64
2023/02/10 10:11:53;;;;;;;62.13;38.80;;;;;;;3.68;100.00;103643.81;5105762;28;20066;-63
2023/02/10 10:14:22;;;;;;;59.25;35.95;;;;;;;3.68;100.00;103643.81;5100225;28;20126;-64
2023/02/10 10:17:35;;;;;;;60.00;37.33;;;;;;;3.68;100.00;103649.22;5112765;28;20070;-62
2023/02/10 10:20:09;;;;;;;38.05;23.60;;;;;;;3.76;100.00;103646.59;5092943;28;20085;-63
2023/02/10 10:22:36;;;;;;;57.33;34.95;;;;;;;3.81;100.00;103643.44;5123142;28;20039;-63
2023/02/10 10:25:41;;;;;;;49.35;29.10;;;;;;;3.92;100.00;103632.44;5115612;28;20554;-64
2023/02/10 10:28:31;;;;;;;62.77;37.50;;;;;;;3.94;100.00;103634.97;5116130;28;20081;-63
2023/02/10 10:31:04;;;;;;;61.63;37.63;;;;;;;3.93;100.00;103630.59;5095896;28;20073;-63
2023/02/10 10:33:53;;;;;;;61.25;36.78;;;;;;;3.91;100.00;103633.41;5095114;28;20452;-63
2023/02/10 10:36:29;;;;;;;47.30;28.95;;;;;;;4.03;100.00;103632.19;5078704;28;20075;-64
2023/02/10 10:39:11;;;;;;;45.35;28.42;;;;;;;4.14;100.00;103631.09;5093754;28;20059;-63
2023/02/10 10:41:39;;;;;;;56.40;33.70;;;;;;;4.23;100.00;103638.28;5095481;28;20056;-65
2023/02/10 10:44:10;;;;;;;54.08;34.13;;;;;;;4.20;100.00;103630.47;5093362;28;20044;-64
2023/02/10 10:46:44;;;;;;;59.15;38.42;;;;;;;4.14;100.00;103624.88;5093592;28;20047;-66
2023/02/10 10:49:12;;;;;;;63.00;37.55;;;;;;;4.08;100.00;103623.63;5094641;28;20127;-65
2023/02/10 10:51:39;;;;;;;61.42;36.53;;;;;;;4.08;100.00;103623.63;5094381;28;20058;-64
2023/02/10 10:54:15;;;;;;;62.15;34.10;;;;;;;4.10;100.00;103613.53;5094176;28;20082;-64
2023/02/10 10:57:09;;;;;;;56.58;34.50;;;;;;;4.10;100.00;103610.00;5092034;28;20051;-63
2023/02/10 10:59:45;;;;;;;49.95;28.45;;;;;;;4.17;100.00;103608.38;5092702;28;20131;-63
2023/02/10 11:02:14;;;;;;;46.35;27.38;;;;;;;4.24;100.00;103606.72;5095265;28;20071;-64
2023/02/10 11:04:44;;;;;;;53.80;31.15;;;;;;;4.33;100.00;103610.31;5094148;28;20040;-63
2023/02/10 11:07:20;;;;;;;43.15;25.05;;;;;;;4.63;100.00;103601.75;5094564;28;20055;-64
2023/02/10 11:09:52;;;;;;;55.40;32.87;;;;;;;4.54;100.00;103602.72;5098714;28;20055;-63
2023/02/10 11:12:40;;;;;;;47.13;28.05;;;;;;;4.50;100.00;103595.94;5114495;28;20046;-62
2023/02/10 11:15:25;;;;;;;41.63;24.30;;;;;;;4.58;100.00;103593.28;5094793;28;20428;-62
2023/02/10 11:17:54;;;;;;;39.55;20.90;;;;;;;4.66;100.00;103597.88;5095524;28;20048;-62
2023/02/10 11:20:25;;;;;;;52.92;30.45;;;;;;;4.73;100.00;103600.81;5095564;28;20039;-63
2023/02/10 11:23:14;;;;;;;41.97;25.00;;;;;;;4.71;100.00;103587.44;5113752;28;20156;-62
2023/02/10 11:25:45;;;;;;;39.28;23.38;;;;;;;4.74;100.00;103586.28;5115352;28;20107;-63